createdAt,value
2023-05-20T00:01:52.709Z,10.00
2023-05-20T00:04:47.854Z,10.02
2023-05-20T00:07:19.177Z,9.80
2023-05-20T00:09:49.533Z,8.50
2023-05-20T00:12:27.030Z,9.85
2023-05-20T01:17:27.847Z,11.07
2023-05-20T01:24:35.449Z,11.65
2023-05-20T02:09:25.905Z,10.70
2023-05-20T02:21:28.582Z,13.35
2023-05-20T02:24:35.491Z,8.85
2023-05-20T02:27:00.085Z,10.40
2023-05-20T02:29:28.974Z,10.65
2023-05-20T02:31:57.555Z,11.30
2023-05-20T02:34:32.708Z,11.73
2023-05-20T02:37:29.868Z,10.25
2023-05-20T02:42:57.477Z,11.10
2023-05-20T02:45:31.493Z,9.52
2023-05-20T02:54:30.213Z,8.75
2023-05-20T03:00:06.235Z,9.02
2023-05-20T03:05:28.968Z,9.88
2023-05-20T03:08:38.602Z,8.82
2023-05-20T03:11:07.988Z,12.23
2023-05-20T03:13:37.122Z,8.63
2023-05-20T03:16:30.192Z,12.60
2023-05-20T03:20:01.847Z,13.75
2023-05-20T03:27:00.065Z,12.48
2023-05-20T03:29:32.240Z,9.05
2023-05-20T03:32:06.355Z,16.25
2023-05-20T03:35:30.027Z,10.93
2023-05-20T03:43:32.076Z,14.40
2023-05-20T03:55:02.503Z,12.02
2023-05-20T03:57:33.151Z,12.73
2023-05-20T04:00:03.129Z,10.20
2023-05-20T04:02:32.698Z,11.73
2023-05-20T04:05:02.453Z,10.10
2023-05-20T04:07:33.623Z,10.95
2023-05-20T04:10:01.948Z,15.65
2023-05-20T04:15:12.271Z,9.18
2023-05-20T04:18:04.264Z,9.98
2023-05-20T04:20:33.154Z,8.73
2023-05-20T04:23:04.452Z,9.63
2023-05-20T04:28:04.081Z,13.10
2023-05-20T04:33:05.953Z,10.80
2023-05-20T04:35:36.116Z,12.65
2023-05-20T04:42:05.729Z,16.83
2023-05-20T04:44:37.109Z,11.10
2023-05-20T04:47:05.560Z,10.75
2023-05-20T04:49:36.092Z,13.00
2023-05-20T04:52:05.651Z,12.90
2023-05-20T04:57:47.524Z,9.27
2023-05-20T05:00:26.630Z,9.95
2023-05-20T05:03:05.057Z,11.43
2023-05-20T05:06:03.860Z,11.43
2023-05-20T05:08:35.082Z,16.83
2023-05-20T05:13:42.091Z,10.43
2023-05-20T05:16:10.470Z,11.90
2023-05-20T05:30:38.387Z,7.22
2023-05-20T05:33:07.273Z,10.25
2023-05-20T05:35:46.298Z,13.57
2023-05-20T05:38:15.399Z,11.05
2023-05-20T05:44:05.802Z,10.27
2023-05-20T05:51:08.082Z,12.15
2023-05-20T05:57:06.702Z,11.65
2023-05-20T06:00:06.014Z,11.13
2023-05-20T06:03:06.459Z,9.73
2023-05-20T06:06:06.400Z,10.75
2023-05-20T06:09:08.410Z,10.18
2023-05-20T06:12:07.458Z,9.60
2023-05-20T06:14:38.528Z,14.88
2023-05-20T06:17:08.175Z,7.72
2023-05-20T06:20:06.820Z,11.15
2023-05-20T06:22:38.323Z,13.65
2023-05-20T06:25:08.681Z,11.27
2023-05-20T06:34:38.927Z,13.15
2023-05-20T06:37:08.650Z,11.40
2023-05-20T06:39:37.134Z,13.20
2023-05-20T06:42:09.122Z,11.60
2023-05-20T06:47:12.665Z,9.55
2023-05-20T06:50:08.687Z,12.82
2023-05-20T06:52:42.274Z,9.95
2023-05-20T06:55:13.710Z,9.95
2023-05-20T06:58:12.835Z,9.00
2023-05-20T07:03:12.568Z,11.25
2023-05-20T07:06:09.740Z,11.88
2023-05-20T07:15:08.840Z,8.55
2023-05-20T07:18:09.367Z,8.32
2023-05-20T07:20:40.851Z,8.38
2023-05-20T07:23:09.376Z,8.95
2023-05-20T07:26:09.871Z,10.32
2023-05-20T07:31:13.469Z,8.07
2023-05-20T07:34:12.371Z,10.90
2023-05-20T07:36:40.890Z,9.40
2023-05-20T07:39:14.378Z,6.63
2023-05-20T07:42:12.023Z,9.10
2023-05-20T07:45:12.317Z,10.00
2023-05-20T07:51:10.025Z,10.25
2023-05-20T07:56:12.594Z,8.07
2023-05-20T08:02:10.827Z,8.98
2023-05-20T08:04:42.047Z,7.72
2023-05-20T08:07:13.573Z,7.80
2023-05-20T08:09:42.073Z,8.40
2023-05-20T08:12:10.366Z,8.25
2023-05-20T08:15:13.076Z,8.88
2023-05-20T08:17:41.757Z,8.63
2023-05-20T08:20:13.586Z,10.20
2023-05-20T08:22:42.155Z,10.45
2023-05-20T08:25:14.036Z,7.80
2023-05-20T08:27:42.827Z,6.95
2023-05-20T08:30:12.394Z,6.75
2023-05-20T08:32:43.765Z,8.55
2023-05-20T08:37:43.652Z,10.15
2023-05-20T08:40:13.850Z,6.95
2023-05-20T08:42:45.730Z,10.27
2023-05-20T08:45:17.209Z,8.32
2023-05-20T08:47:47.033Z,8.70
2023-05-20T08:50:16.171Z,7.88
2023-05-20T08:52:48.259Z,8.48
2023-05-20T08:55:42.188Z,6.47
2023-05-20T08:58:16.406Z,8.05
2023-05-20T09:00:44.742Z,8.57
2023-05-20T09:03:13.348Z,8.38
2023-05-20T09:05:44.447Z,6.95
2023-05-20T09:08:13.422Z,6.72
2023-05-20T09:10:44.938Z,9.82
2023-05-20T09:13:13.456Z,6.03
2023-05-20T09:15:44.761Z,8.95
2023-05-20T09:20:47.596Z,6.13
2023-05-20T09:23:15.955Z,7.50
2023-05-20T09:25:44.287Z,7.57
2023-05-20T09:28:12.876Z,7.93
2023-05-20T09:30:46.015Z,5.55
2023-05-20T09:33:14.820Z,8.32
2023-05-20T09:35:43.572Z,7.75
2023-05-20T09:38:16.894Z,6.70
2023-05-20T09:40:47.484Z,8.00
2023-05-20T09:43:16.291Z,6.83
2023-05-20T09:45:44.896Z,9.57
2023-05-20T09:48:16.226Z,5.85
2023-05-20T09:53:16.962Z,5.53
2023-05-20T09:55:46.431Z,4.65
2023-05-20T09:58:16.446Z,4.25
2023-05-20T10:00:44.819Z,4.72
2023-05-20T10:03:14.881Z,4.30
2023-05-20T10:05:58.004Z,5.38
2023-05-20T10:08:57.015Z,4.10
2023-05-20T10:12:02.279Z,3.95
2023-05-20T10:14:50.464Z,5.45
2023-05-20T10:17:44.779Z,5.65
2023-05-20T10:20:16.980Z,5.88
2023-05-20T10:22:46.399Z,5.80
2023-05-20T10:28:45.867Z,11.32
2023-05-20T10:31:26.606Z,8.30
2023-05-20T10:33:56.940Z,7.57
2023-05-20T10:36:35.472Z,7.43
2023-05-20T10:39:46.930Z,5.65
2023-05-20T10:42:18.521Z,3.97
2023-05-20T10:44:48.480Z,8.60
2023-05-20T10:47:25.331Z,5.07
2023-05-20T10:49:54.044Z,8.88
2023-05-20T10:52:25.736Z,7.55
2023-05-20T10:55:24.255Z,4.78
2023-05-20T10:58:06.555Z,8.25
2023-05-20T11:01:16.416Z,6.03
2023-05-20T11:03:51.618Z,7.65
2023-05-20T11:06:20.189Z,6.13
2023-05-20T11:09:17.582Z,6.90
2023-05-20T11:11:49.113Z,3.92
2023-05-20T11:14:19.101Z,6.30
2023-05-20T11:16:49.444Z,4.45
2023-05-20T11:19:17.997Z,5.15
2023-05-20T11:22:22.001Z,6.60
2023-05-20T11:28:17.302Z,7.43
2023-05-20T11:31:16.239Z,5.85
2023-05-20T11:33:50.254Z,4.38
2023-05-20T11:36:27.412Z,4.18
2023-05-20T11:39:02.035Z,4.82
2023-05-20T11:44:47.305Z,5.43
2023-05-20T11:47:17.737Z,6.90
2023-05-20T11:50:18.126Z,5.32
2023-05-20T11:53:20.240Z,6.50
2023-05-20T11:55:56.136Z,3.30
2023-05-20T11:58:27.167Z,6.50
2023-05-20T12:01:05.188Z,5.35
2023-05-20T12:04:18.730Z,6.53
2023-05-20T12:06:50.199Z,7.78
2023-05-20T12:09:18.617Z,5.45
2023-05-20T12:15:17.815Z,5.80
2023-05-20T12:17:51.630Z,8.88
2023-05-20T12:20:24.490Z,5.70
2023-05-20T12:23:18.051Z,6.65
2023-05-20T12:25:48.096Z,4.68
2023-05-20T12:28:19.828Z,5.05
2023-05-20T12:30:48.067Z,6.10
2023-05-20T12:33:17.282Z,8.25
2023-05-20T12:35:48.743Z,5.25
2023-05-20T12:38:49.272Z,6.60
2023-05-20T12:41:20.568Z,5.90
2023-05-20T12:49:21.842Z,5.63
2023-05-20T12:51:50.472Z,5.18
2023-05-20T12:54:19.522Z,4.18
2023-05-20T12:56:49.244Z,6.72
2023-05-20T12:59:20.582Z,5.57
2023-05-20T13:04:21.174Z,7.57
2023-05-20T13:06:49.567Z,6.30
2023-05-20T13:09:20.782Z,4.32
2023-05-20T13:11:49.045Z,8.63
2023-05-20T13:14:20.533Z,5.25
2023-05-20T13:16:50.510Z,7.57
2023-05-20T13:19:18.801Z,7.75
2023-05-20T13:21:53.105Z,7.53
2023-05-20T13:24:21.839Z,5.15
2023-05-20T13:26:50.107Z,5.00
2023-05-20T13:29:22.378Z,6.18
2023-05-20T13:32:28.577Z,6.47
2023-05-20T13:34:49.497Z,5.13
2023-05-20T13:37:20.621Z,5.85
2023-05-20T13:39:50.557Z,5.13
2023-05-20T13:42:23.413Z,8.93
2023-05-20T13:50:20.950Z,5.10
2023-05-20T13:52:52.559Z,7.75
2023-05-20T13:55:21.808Z,7.43
2023-05-20T13:57:51.092Z,6.63
2023-05-20T14:02:50.307Z,5.97
2023-05-20T14:05:19.722Z,6.25
2023-05-20T14:07:48.175Z,8.25
2023-05-20T14:10:19.688Z,6.70
2023-05-20T14:12:49.082Z,8.60
2023-05-20T14:15:17.464Z,5.70
2023-05-20T14:17:52.447Z,5.88
2023-05-20T14:20:27.220Z,9.40
2023-05-20T14:23:18.443Z,4.47
2023-05-20T14:25:50.673Z,7.28
2023-05-20T14:28:21.300Z,7.72
2023-05-20T14:30:49.599Z,7.95
2023-05-20T14:33:20.329Z,5.90
2023-05-20T14:35:52.102Z,5.75
2023-05-20T14:38:23.565Z,4.55
2023-05-20T14:40:52.106Z,6.10
2023-05-20T14:43:22.339Z,7.63
2023-05-20T14:45:50.645Z,5.57
2023-05-20T14:48:21.668Z,5.88
2023-05-20T14:50:53.039Z,5.85
2023-05-20T14:55:49.616Z,5.93
2023-05-20T14:58:21.028Z,4.47
2023-05-20T15:03:20.148Z,5.50
2023-05-20T15:05:51.701Z,4.97
2023-05-20T15:08:20.271Z,8.13
2023-05-20T15:10:51.613Z,5.93
2023-05-20T15:15:52.901Z,4.63
2023-05-20T15:18:21.552Z,5.25
2023-05-20T15:20:53.457Z,3.67
2023-05-20T15:23:22.416Z,5.78
2023-05-20T15:25:53.672Z,4.90
2023-05-20T15:28:22.201Z,5.68
2023-05-20T15:30:55.490Z,5.72
2023-05-20T15:33:24.232Z,5.43
2023-05-20T15:35:52.757Z,3.58
2023-05-20T15:38:24.933Z,4.70
2023-05-20T15:40:53.302Z,7.13
2023-05-20T15:43:23.227Z,7.45
2023-05-20T15:45:55.613Z,4.07
2023-05-20T15:48:27.501Z,4.45
2023-05-20T15:59:51.909Z,5.93
2023-05-20T16:02:51.845Z,6.32
2023-05-20T16:05:52.645Z,4.25
2023-05-20T16:08:59.461Z,5.13
2023-05-20T16:11:30.000Z,5.00
2023-05-20T16:14:01.339Z,3.70
2023-05-20T16:21:00.843Z,3.25
2023-05-20T16:39:54.840Z,4.57
2023-05-20T16:53:10.269Z,3.20
2023-05-20T16:53:53.748Z,4.38
2023-05-20T16:59:17.755Z,2.90
2023-05-20T17:01:54.720Z,2.33
2023-05-20T17:04:23.493Z,2.05
2023-05-20T17:06:57.729Z,1.83
2023-05-20T17:09:26.102Z,1.70
2023-05-20T17:11:55.436Z,2.50
2023-05-20T17:14:34.667Z,4.20
2023-05-20T17:17:02.995Z,3.72
2023-05-20T17:19:59.076Z,2.40
2023-05-20T17:22:30.430Z,2.28
2023-05-20T17:24:59.533Z,4.00
2023-05-20T17:28:00.688Z,1.40
2023-05-20T17:33:09.713Z,0.52
2023-05-20T17:35:43.990Z,1.48
2023-05-20T17:41:29.577Z,1.35
2023-05-20T17:43:58.031Z,0.80
2023-05-20T17:46:26.629Z,0.77
2023-05-20T17:48:58.221Z,3.95
2023-05-20T17:54:01.917Z,3.58
2023-05-20T17:56:30.482Z,0.40
2023-05-20T18:01:30.424Z,1.25
2023-05-20T18:04:05.300Z,1.77
2023-05-20T18:06:38.501Z,1.77
2023-05-20T18:09:07.257Z,2.33
2023-05-20T18:12:03.592Z,3.03
2023-05-20T18:19:58.987Z,1.95
2023-05-20T18:22:30.697Z,1.10
2023-05-20T18:25:01.589Z,0.35
2023-05-20T18:27:30.247Z,3.53
2023-05-20T18:30:01.611Z,1.35
2023-05-20T18:33:06.232Z,1.40
2023-05-20T18:39:36.248Z,0.98
2023-05-20T18:42:11.167Z,2.28
2023-05-20T18:45:14.879Z,1.00
2023-05-20T19:21:59.281Z,2.88
2023-05-20T20:30:08.511Z,7.97
2023-05-20T20:33:12.713Z,4.10
2023-05-20T20:36:07.809Z,4.82
2023-05-20T20:44:24.487Z,2.72
2023-05-20T20:48:10.487Z,1.35
2023-05-20T20:56:10.879Z,2.03
2023-05-20T20:59:10.155Z,5.70
2023-05-20T21:04:38.079Z,3.28
2023-05-20T21:07:09.626Z,3.90
2023-05-20T21:09:38.604Z,4.30
2023-05-20T21:12:10.480Z,6.03
2023-05-20T21:14:39.091Z,4.47
2023-05-20T21:17:12.179Z,4.95
2023-05-20T21:22:40.229Z,3.00
2023-05-20T21:25:12.203Z,4.43
2023-05-20T21:28:08.876Z,3.00
2023-05-20T21:30:40.038Z,3.95
2023-05-20T21:33:10.102Z,6.07
2023-05-20T21:35:44.673Z,3.30
2023-05-20T21:38:15.586Z,5.53
2023-05-20T21:44:17.388Z,3.35
2023-05-20T21:46:46.015Z,4.28
2023-05-20T21:49:14.632Z,3.15
2023-05-20T21:52:13.109Z,3.72
2023-05-20T21:55:12.037Z,12.15
2023-05-20T21:57:49.336Z,3.20
2023-05-20T22:00:19.871Z,3.65
2023-05-20T22:03:14.050Z,3.03
2023-05-20T22:06:10.965Z,2.35
2023-05-20T22:11:16.607Z,4.35
2023-05-20T22:17:13.239Z,2.90
2023-05-20T22:19:44.978Z,3.65
2023-05-20T22:22:13.852Z,3.67
2023-05-20T22:28:11.990Z,4.25
2023-05-20T22:33:15.118Z,3.00
2023-05-20T22:42:13.066Z,5.82
2023-05-20T22:50:17.345Z,3.63
2023-05-20T22:52:45.848Z,3.78
2023-05-20T22:55:24.128Z,5.97
2023-05-20T22:58:18.488Z,2.85
2023-05-20T23:01:14.117Z,5.15
2023-05-20T23:03:48.725Z,2.60
2023-05-20T23:06:17.892Z,4.65
2023-05-20T23:15:00.938Z,3.90
2023-05-20T23:21:14.922Z,4.50
2023-05-20T23:29:43.645Z,3.22
2023-05-20T23:32:18.176Z,2.63
2023-05-20T23:35:19.424Z,3.22
2023-05-20T23:41:16.937Z,3.13
2023-05-20T23:44:17.989Z,4.00
2023-05-20T23:50:18.412Z,3.85
2023-05-20T23:53:18.731Z,4.20
2023-05-20T23:56:21.227Z,2.80
